Leyba, New Mexico
Current Conditions -  °F | °C
As of 7:53 PM on Wednesday 22 Oct 2014 (Local Time) from KCQC Reporting Station
Clear Clear  
Wind Chill: 50°   Ceiling: Unl
Heat Index: 50°   Visibility: 10mi
Dew Point: 32°   Wind: 7mph
Humidity: 50%   Direction: 270°W
Pressure: 30.23"   Gusts: NA
Location:  35.2352°N, 105.52°W
Report Text: KCQC 230153Z AUTO 27006KT 10SM CLR 10/00 A3023 RMK AO2 SLP188 T01000000
Loading
Personal Weather Stations






























Interactive Weather Map
Tropical Storm Tracking
New forecast layout! Learn more

10-Day Weather Forecast

Advertisements
Track Severe Weather on mobile